sensor_id;sensor_type;location;lat;lon;timestamp;temperature;humidity
23100;DHT22;53791;50.696;4.396;2022-11-27T00:01:20;7.90;99.90
23100;DHT22;53791;50.696;4.396;2022-11-27T00:03:48;8.00;99.90
23100;DHT22;53791;50.696;4.396;2022-11-27T00:06:18;8.00;99.90
23100;DHT22;53791;50.696;4.396;2022-11-27T00:08:46;8.00;99.90
23100;DHT22;53791;50.696;4.396;2022-11-27T00:11:16;7.90;99.90
23100;DHT22;53791;50.696;4.396;2022-11-27T00:13:45;8.00;99.90
23100;DHT22;53791;50.696;4.396;2022-11-27T00:16:13;8.00;99.90
23100;DHT22;53791;50.696;4.396;2022-11-27T00:18:41;8.00;99.90
23100;DHT22;53791;50.696;4.396;2022-11-27T00:21:14;7.90;99.90
23100;DHT22;53791;50.696;4.396;2022-11-27T00:23:42;7.90;99.90
23100;DHT22;53791;50.696;4.396;2022-11-27T00:26:10;7.90;99.90
23100;DHT22;53791;50.696;4.396;2022-11-27T00:28:38;7.90;99.90
23100;DHT22;53791;50.696;4.396;2022-11-27T00:31:16;7.90;99.90
23100;DHT22;53791;50.696;4.396;2022-11-27T00:33:44;7.90;99.90
23100;DHT22;53791;50.696;4.396;2022-11-27T00:36:13;7.90;99.90
23100;DHT22;53791;50.696;4.396;2022-11-27T00:38:41;8.00;99.90
23100;DHT22;53791;50.696;4.396;2022-11-27T00:41:10;8.00;99.90
23100;DHT22;53791;50.696;4.396;2022-11-27T00:43:38;7.90;99.90
23100;DHT22;53791;50.696;4.396;2022-11-27T00:46:05;7.90;99.90
23100;DHT22;53791;50.696;4.396;2022-11-27T00:48:33;7.90;99.90
23100;DHT22;53791;50.696;4.396;2022-11-27T00:51:03;7.90;99.90
23100;DHT22;53791;50.696;4.396;2022-11-27T00:53:31;8.00;99.90
23100;DHT22;53791;50.696;4.396;2022-11-27T00:55:59;8.00;99.90
23100;DHT22;53791;50.696;4.396;2022-11-27T00:58:27;8.00;99.90
23100;DHT22;53791;50.696;4.396;2022-11-27T01:00:57;8.00;99.90
23100;DHT22;53791;50.696;4.396;2022-11-27T01:03:25;7.90;99.90
23100;DHT22;53791;50.696;4.396;2022-11-27T01:05:53;7.90;99.90
23100;DHT22;53791;50.696;4.396;2022-11-27T01:08:21;7.90;99.90
23100;DHT22;53791;50.696;4.396;2022-11-27T01:10:51;7.80;99.90
23100;DHT22;53791;50.696;4.396;2022-11-27T01:13:21;7.90;99.90
23100;DHT22;53791;50.696;4.396;2022-11-27T01:15:59;8.00;99.90
23100;DHT22;53791;50.696;4.396;2022-11-27T01:18:27;7.90;99.90
23100;DHT22;53791;50.696;4.396;2022-11-27T01:20:55;7.90;99.90
23100;DHT22;53791;50.696;4.396;2022-11-27T01:23:23;7.90;99.90
23100;DHT22;53791;50.696;4.396;2022-11-27T01:25:51;7.90;99.90
23100;DHT22;53791;50.696;4.396;2022-11-27T01:28:22;7.90;99.90
23100;DHT22;53791;50.696;4.396;2022-11-27T01:30:50;7.90;99.90
23100;DHT22;53791;50.696;4.396;2022-11-27T01:33:18;7.90;99.90
23100;DHT22;53791;50.696;4.396;2022-11-27T01:35:56;7.90;99.90
23100;DHT22;53791;50.696;4.396;2022-11-27T01:38:24;7.90;99.90
23100;DHT22;53791;50.696;4.396;2022-11-27T01:41:06;7.90;99.90
23100;DHT22;53791;50.696;4.396;2022-11-27T01:43:50;7.90;99.90
23100;DHT22;53791;50.696;4.396;2022-11-27T01:51:53;8.00;99.90
23100;DHT22;53791;50.696;4.396;2022-11-27T01:54:23;8.00;99.90
23100;DHT22;53791;50.696;4.396;2022-11-27T01:56:53;8.00;99.90
23100;DHT22;53791;50.696;4.396;2022-11-27T01:59:22;7.90;99.90
23100;DHT22;53791;50.696;4.396;2022-11-27T02:01:50;7.90;99.90
23100;DHT22;53791;50.696;4.396;2022-11-27T02:04:18;7.90;99.90
23100;DHT22;53791;50.696;4.396;2022-11-27T02:06:46;7.90;99.90
23100;DHT22;53791;50.696;4.396;2022-11-27T02:09:13;8.00;99.90
23100;DHT22;53791;50.696;4.396;2022-11-27T02:12:03;8.00;99.90
23100;DHT22;53791;50.696;4.396;2022-11-27T02:20:33;7.90;99.90
23100;DHT22;53791;50.696;4.396;2022-11-27T02:23:18;7.80;99.90
23100;DHT22;53791;50.696;4.396;2022-11-27T02:28:59;7.80;99.90
23100;DHT22;53791;50.696;4.396;2022-11-27T02:37:44;7.80;99.90
23100;DHT22;53791;50.696;4.396;2022-11-27T02:43:14;7.80;99.90
23100;DHT22;53791;50.696;4.396;2022-11-27T02:45:43;7.90;99.90
23100;DHT22;53791;50.696;4.396;2022-11-27T02:48:13;7.90;99.90
23100;DHT22;53791;50.696;4.396;2022-11-27T02:50:43;7.90;99.90
23100;DHT22;53791;50.696;4.396;2022-11-27T02:53:34;7.90;99.90
23100;DHT22;53791;50.696;4.396;2022-11-27T02:56:01;7.90;99.90
23100;DHT22;53791;50.696;4.396;2022-11-27T02:58:29;7.80;99.90
23100;DHT22;53791;50.696;4.396;2022-11-27T03:00:57;7.70;99.90
23100;DHT22;53791;50.696;4.396;2022-11-27T03:03:28;7.80;99.90
23100;DHT22;53791;50.696;4.396;2022-11-27T03:05:59;7.80;99.90
23100;DHT22;53791;50.696;4.396;2022-11-27T03:08:37;7.90;99.90
23100;DHT22;53791;50.696;4.396;2022-11-27T03:11:09;7.80;99.90
23100;DHT22;53791;50.696;4.396;2022-11-27T03:13:41;7.90;99.90
23100;DHT22;53791;50.696;4.396;2022-11-27T03:16:16;8.00;99.90
23100;DHT22;53791;50.696;4.396;2022-11-27T03:18:54;8.00;99.90
23100;DHT22;53791;50.696;4.396;2022-11-27T03:21:29;8.00;99.90
23100;DHT22;53791;50.696;4.396;2022-11-27T03:23:52;8.10;99.90
23100;DHT22;53791;50.696;4.396;2022-11-27T03:26:20;8.10;99.90
23100;DHT22;53791;50.696;4.396;2022-11-27T03:28:49;8.10;99.90
23100;DHT22;53791;50.696;4.396;2022-11-27T03:31:17;8.00;99.90
23100;DHT22;53791;50.696;4.396;2022-11-27T03:33:46;8.00;99.90
23100;DHT22;53791;50.696;4.396;2022-11-27T03:36:15;8.10;99.90
23100;DHT22;53791;50.696;4.396;2022-11-27T03:38:44;8.10;99.90
23100;DHT22;53791;50.696;4.396;2022-11-27T03:41:23;8.00;99.90
23100;DHT22;53791;50.696;4.396;2022-11-27T03:49:45;8.00;99.90
23100;DHT22;53791;50.696;4.396;2022-11-27T03:52:34;8.10;99.90
23100;DHT22;53791;50.696;4.396;2022-11-27T03:55:07;8.20;99.90
23100;DHT22;53791;50.696;4.396;2022-11-27T03:57:42;8.20;99.90
23100;DHT22;53791;50.696;4.396;2022-11-27T04:00:10;8.20;99.90
23100;DHT22;53791;50.696;4.396;2022-11-27T04:02:46;8.20;99.90
23100;DHT22;53791;50.696;4.396;2022-11-27T04:05:14;8.10;99.90
23100;DHT22;53791;50.696;4.396;2022-11-27T04:07:42;8.10;99.90
23100;DHT22;53791;50.696;4.396;2022-11-27T04:10:11;8.20;99.90
23100;DHT22;53791;50.696;4.396;2022-11-27T04:12:40;8.30;99.90
23100;DHT22;53791;50.696;4.396;2022-11-27T04:15:08;8.20;99.90
23100;DHT22;53791;50.696;4.396;2022-11-27T04:17:36;8.20;99.90
23100;DHT22;53791;50.696;4.396;2022-11-27T04:20:04;8.20;99.90
23100;DHT22;53791;50.696;4.396;2022-11-27T04:22:32;8.10;99.90
23100;DHT22;53791;50.696;4.396;2022-11-27T04:24:59;8.20;99.90
23100;DHT22;53791;50.696;4.396;2022-11-27T04:27:27;8.20;99.90
23100;DHT22;53791;50.696;4.396;2022-11-27T04:29:54;8.20;99.90
23100;DHT22;53791;50.696;4.396;2022-11-27T04:32:22;8.20;99.90
23100;DHT22;53791;50.696;4.396;2022-11-27T04:34:49;8.30;99.90
23100;DHT22;53791;50.696;4.396;2022-11-27T04:37:17;8.20;99.90
23100;DHT22;53791;50.696;4.396;2022-11-27T04:39:44;8.20;99.90
23100;DHT22;53791;50.696;4.396;2022-11-27T04:42:12;8.20;99.90
23100;DHT22;53791;50.696;4.396;2022-11-27T04:44:39;8.10;99.90
23100;DHT22;53791;50.696;4.396;2022-11-27T04:47:07;8.10;99.90
23100;DHT22;53791;50.696;4.396;2022-11-27T04:49:34;8.00;99.90
23100;DHT22;53791;50.696;4.396;2022-11-27T04:52:02;8.10;99.90
23100;DHT22;53791;50.696;4.396;2022-11-27T04:54:29;8.10;99.90
23100;DHT22;53791;50.696;4.396;2022-11-27T04:56:57;8.10;99.90
23100;DHT22;53791;50.696;4.396;2022-11-27T04:59:24;8.00;99.90
23100;DHT22;53791;50.696;4.396;2022-11-27T05:01:52;8.00;99.90
23100;DHT22;53791;50.696;4.396;2022-11-27T05:04:19;7.90;99.90
23100;DHT22;53791;50.696;4.396;2022-11-27T05:06:47;7.90;99.90
23100;DHT22;53791;50.696;4.396;2022-11-27T05:09:16;7.90;99.90
23100;DHT22;53791;50.696;4.396;2022-11-27T05:11:44;7.90;99.90
23100;DHT22;53791;50.696;4.396;2022-11-27T05:14:12;7.80;99.90
23100;DHT22;53791;50.696;4.396;2022-11-27T05:16:45;7.80;99.90
23100;DHT22;53791;50.696;4.396;2022-11-27T05:19:14;7.90;99.90
23100;DHT22;53791;50.696;4.396;2022-11-27T05:21:43;7.90;99.90
23100;DHT22;53791;50.696;4.396;2022-11-27T05:24:11;7.80;99.90
23100;DHT22;53791;50.696;4.396;2022-11-27T05:26:39;7.80;99.90
23100;DHT22;53791;50.696;4.396;2022-11-27T05:29:08;7.70;99.90
23100;DHT22;53791;50.696;4.396;2022-11-27T05:31:37;7.70;99.90
23100;DHT22;53791;50.696;4.396;2022-11-27T05:34:05;7.70;99.90
23100;DHT22;53791;50.696;4.396;2022-11-27T05:36:33;7.70;99.90
23100;DHT22;53791;50.696;4.396;2022-11-27T05:39:03;7.70;99.90
23100;DHT22;53791;50.696;4.396;2022-11-27T05:41:34;7.70;99.90
23100;DHT22;53791;50.696;4.396;2022-11-27T05:44:02;7.60;99.90
23100;DHT22;53791;50.696;4.396;2022-11-27T05:46:29;7.60;99.90
23100;DHT22;53791;50.696;4.396;2022-11-27T05:48:57;7.70;99.90
23100;DHT22;53791;50.696;4.396;2022-11-27T05:51:24;7.60;99.90
23100;DHT22;53791;50.696;4.396;2022-11-27T05:53:52;7.60;99.90
23100;DHT22;53791;50.696;4.396;2022-11-27T05:56:19;7.60;99.90
23100;DHT22;53791;50.696;4.396;2022-11-27T05:58:47;7.50;99.90
23100;DHT22;53791;50.696;4.396;2022-11-27T06:01:17;7.50;99.90
23100;DHT22;53791;50.696;4.396;2022-11-27T06:03:45;7.50;99.90
23100;DHT22;53791;50.696;4.396;2022-11-27T06:06:18;7.50;99.90
23100;DHT22;53791;50.696;4.396;2022-11-27T06:08:46;7.50;99.90
23100;DHT22;53791;50.696;4.396;2022-11-27T06:11:16;7.50;99.90
23100;DHT22;53791;50.696;4.396;2022-11-27T06:13:45;7.50;99.90
23100;DHT22;53791;50.696;4.396;2022-11-27T06:16:15;7.50;99.90
23100;DHT22;53791;50.696;4.396;2022-11-27T06:18:43;7.50;99.90
23100;DHT22;53791;50.696;4.396;2022-11-27T06:21:12;7.60;99.90
23100;DHT22;53791;50.696;4.396;2022-11-27T06:23:41;7.60;99.90
23100;DHT22;53791;50.696;4.396;2022-11-27T06:26:17;7.50;99.90
23100;DHT22;53791;50.696;4.396;2022-11-27T06:28:46;7.60;99.90
23100;DHT22;53791;50.696;4.396;2022-11-27T06:31:17;7.70;99.90
23100;DHT22;53791;50.696;4.396;2022-11-27T06:33:46;7.70;99.90
23100;DHT22;53791;50.696;4.396;2022-11-27T06:36:14;7.70;99.90
23100;DHT22;53791;50.696;4.396;2022-11-27T06:38:42;7.70;99.90
23100;DHT22;53791;50.696;4.396;2022-11-27T06:41:12;7.70;99.90
23100;DHT22;53791;50.696;4.396;2022-11-27T06:43:40;7.60;99.90
23100;DHT22;53791;50.696;4.396;2022-11-27T06:46:13;7.60;99.90
23100;DHT22;53791;50.696;4.396;2022-11-27T06:48:42;7.60;99.90
23100;DHT22;53791;50.696;4.396;2022-11-27T06:51:12;7.60;99.90
23100;DHT22;53791;50.696;4.396;2022-11-27T06:53:40;7.60;99.90
23100;DHT22;53791;50.696;4.396;2022-11-27T06:56:11;7.60;99.90
23100;DHT22;53791;50.696;4.396;2022-11-27T06:58:39;7.70;99.90
23100;DHT22;53791;50.696;4.396;2022-11-27T07:01:12;7.70;99.90
23100;DHT22;53791;50.696;4.396;2022-11-27T07:03:40;7.80;99.90
23100;DHT22;53791;50.696;4.396;2022-11-27T07:06:10;7.70;99.90
23100;DHT22;53791;50.696;4.396;2022-11-27T07:08:37;7.70;99.90
23100;DHT22;53791;50.696;4.396;2022-11-27T07:11:07;7.70;99.90
23100;DHT22;53791;50.696;4.396;2022-11-27T07:13:35;7.80;99.90
23100;DHT22;53791;50.696;4.396;2022-11-27T07:16:05;7.80;99.90
23100;DHT22;53791;50.696;4.396;2022-11-27T07:18:41;7.70;99.90
23100;DHT22;53791;50.696;4.396;2022-11-27T07:21:10;7.70;99.90
23100;DHT22;53791;50.696;4.396;2022-11-27T07:23:38;7.70;99.90
23100;DHT22;53791;50.696;4.396;2022-11-27T07:26:08;7.70;99.90
23100;DHT22;53791;50.696;4.396;2022-11-27T07:28:35;7.70;99.90
23100;DHT22;53791;50.696;4.396;2022-11-27T07:31:03;7.80;99.90
23100;DHT22;53791;50.696;4.396;2022-11-27T07:33:31;7.90;99.90
23100;DHT22;53791;50.696;4.396;2022-11-27T07:36:01;8.00;99.90
23100;DHT22;53791;50.696;4.396;2022-11-27T07:38:29;7.90;99.90
23100;DHT22;53791;50.696;4.396;2022-11-27T07:41:01;7.90;99.90
23100;DHT22;53791;50.696;4.396;2022-11-27T07:43:30;8.00;99.90
23100;DHT22;53791;50.696;4.396;2022-11-27T07:46:02;8.00;99.90
23100;DHT22;53791;50.696;4.396;2022-11-27T07:48:27;8.10;99.90
23100;DHT22;53791;50.696;4.396;2022-11-27T07:50:55;8.10;99.90
23100;DHT22;53791;50.696;4.396;2022-11-27T07:53:22;8.20;99.90
23100;DHT22;53791;50.696;4.396;2022-11-27T07:55:50;8.00;99.90
23100;DHT22;53791;50.696;4.396;2022-11-27T07:58:18;8.10;99.90
23100;DHT22;53791;50.696;4.396;2022-11-27T08:00:45;8.00;99.90
23100;DHT22;53791;50.696;4.396;2022-11-27T08:03:13;8.00;99.90
23100;DHT22;53791;50.696;4.396;2022-11-27T08:05:42;7.90;99.90
23100;DHT22;53791;50.696;4.396;2022-11-27T08:08:09;7.90;99.90
23100;DHT22;53791;50.696;4.396;2022-11-27T08:10:37;7.80;99.90
23100;DHT22;53791;50.696;4.396;2022-11-27T08:13:06;7.90;99.90
23100;DHT22;53791;50.696;4.396;2022-11-27T08:15:33;8.00;99.90
23100;DHT22;53791;50.696;4.396;2022-11-27T08:18:02;8.00;99.90
23100;DHT22;53791;50.696;4.396;2022-11-27T08:20:30;8.00;99.90
23100;DHT22;53791;50.696;4.396;2022-11-27T08:22:58;8.00;99.90
23100;DHT22;53791;50.696;4.396;2022-11-27T08:25:25;8.00;99.90
23100;DHT22;53791;50.696;4.396;2022-11-27T08:27:53;8.10;99.90
23100;DHT22;53791;50.696;4.396;2022-11-27T08:30:21;8.10;99.90
23100;DHT22;53791;50.696;4.396;2022-11-27T08:32:50;8.00;99.90
23100;DHT22;53791;50.696;4.396;2022-11-27T08:35:27;8.00;99.90
23100;DHT22;53791;50.696;4.396;2022-11-27T08:38:08;8.00;99.90
23100;DHT22;53791;50.696;4.396;2022-11-27T08:40:36;7.90;99.90
23100;DHT22;53791;50.696;4.396;2022-11-27T08:46:13;7.90;99.90
23100;DHT22;53791;50.696;4.396;2022-11-27T08:48:41;7.90;99.90
23100;DHT22;53791;50.696;4.396;2022-11-27T08:51:11;7.90;99.90
23100;DHT22;53791;50.696;4.396;2022-11-27T08:56:55;8.00;99.90
23100;DHT22;53791;50.696;4.396;2022-11-27T08:59:22;8.00;99.90
23100;DHT22;53791;50.696;4.396;2022-11-27T09:01:49;8.00;99.90
23100;DHT22;53791;50.696;4.396;2022-11-27T09:04:17;7.90;99.90
23100;DHT22;53791;50.696;4.396;2022-11-27T09:06:44;7.90;99.90
23100;DHT22;53791;50.696;4.396;2022-11-27T09:12:23;7.90;99.90
23100;DHT22;53791;50.696;4.396;2022-11-27T09:15:10;8.00;99.90
23100;DHT22;53791;50.696;4.396;2022-11-27T09:17:37;7.90;99.90
23100;DHT22;53791;50.696;4.396;2022-11-27T09:20:08;7.90;99.90
23100;DHT22;53791;50.696;4.396;2022-11-27T09:22:55;7.90;99.90
23100;DHT22;53791;50.696;4.396;2022-11-27T09:25:23;7.90;99.90
23100;DHT22;53791;50.696;4.396;2022-11-27T09:27:51;7.90;99.90
23100;DHT22;53791;50.696;4.396;2022-11-27T09:30:18;7.90;99.90
23100;DHT22;53791;50.696;4.396;2022-11-27T09:36:31;7.90;99.90
23100;DHT22;53791;50.696;4.396;2022-11-27T09:38:59;8.00;99.90
23100;DHT22;53791;50.696;4.396;2022-11-27T09:44:45;7.90;99.90
23100;DHT22;53791;50.696;4.396;2022-11-27T09:47:36;7.90;99.90
23100;DHT22;53791;50.696;4.396;2022-11-27T10:00:14;7.70;99.90
23100;DHT22;53791;50.696;4.396;2022-11-27T10:02:43;7.70;99.90
23100;DHT22;53791;50.696;4.396;2022-11-27T10:05:20;7.60;99.90
23100;DHT22;53791;50.696;4.396;2022-11-27T10:11:10;7.60;99.90
23100;DHT22;53791;50.696;4.396;2022-11-27T10:19:38;7.60;99.90
23100;DHT22;53791;50.696;4.396;2022-11-27T10:22:17;7.80;99.90
23100;DHT22;53791;50.696;4.396;2022-11-27T10:27:37;7.80;99.90
23100;DHT22;53791;50.696;4.396;2022-11-27T10:30:20;7.80;99.90
23100;DHT22;53791;50.696;4.396;2022-11-27T10:32:51;7.70;99.90
23100;DHT22;53791;50.696;4.396;2022-11-27T10:35:21;7.80;99.90
23100;DHT22;53791;50.696;4.396;2022-11-27T10:40:29;7.70;99.90
23100;DHT22;53791;50.696;4.396;2022-11-27T10:43:31;7.70;99.90
23100;DHT22;53791;50.696;4.396;2022-11-27T10:49:41;7.80;99.90
23100;DHT22;53791;50.696;4.396;2022-11-27T10:52:13;7.80;99.90
23100;DHT22;53791;50.696;4.396;2022-11-27T10:58:13;7.80;99.90
23100;DHT22;53791;50.696;4.396;2022-11-27T11:00:38;7.80;99.90
23100;DHT22;53791;50.696;4.396;2022-11-27T11:03:13;7.80;99.90
23100;DHT22;53791;50.696;4.396;2022-11-27T11:05:36;7.90;99.90
23100;DHT22;53791;50.696;4.396;2022-11-27T11:08:15;8.00;99.90
23100;DHT22;53791;50.696;4.396;2022-11-27T11:11:01;8.00;99.90
23100;DHT22;53791;50.696;4.396;2022-11-27T11:13:30;8.00;99.90
23100;DHT22;53791;50.696;4.396;2022-11-27T11:19:24;8.20;99.90
23100;DHT22;53791;50.696;4.396;2022-11-27T11:22:13;8.20;99.90
23100;DHT22;53791;50.696;4.396;2022-11-27T11:24:47;8.30;99.90
23100;DHT22;53791;50.696;4.396;2022-11-27T11:27:24;8.40;99.90
23100;DHT22;53791;50.696;4.396;2022-11-27T11:29:58;8.50;99.90
23100;DHT22;53791;50.696;4.396;2022-11-27T11:32:31;8.40;99.90
23100;DHT22;53791;50.696;4.396;2022-11-27T11:38:25;8.50;99.90
23100;DHT22;53791;50.696;4.396;2022-11-27T11:41:06;8.50;99.90
23100;DHT22;53791;50.696;4.396;2022-11-27T11:43:36;8.50;99.90
23100;DHT22;53791;50.696;4.396;2022-11-27T11:46:16;8.40;99.90
23100;DHT22;53791;50.696;4.396;2022-11-27T11:48:34;8.40;99.90
23100;DHT22;53791;50.696;4.396;2022-11-27T11:51:18;8.40;99.90
23100;DHT22;53791;50.696;4.396;2022-11-27T11:53:50;8.40;99.90
23100;DHT22;53791;50.696;4.396;2022-11-27T11:56:30;8.60;99.90
23100;DHT22;53791;50.696;4.396;2022-11-27T11:59:03;8.50;99.90
23100;DHT22;53791;50.696;4.396;2022-11-27T12:04:35;8.50;99.90
23100;DHT22;53791;50.696;4.396;2022-11-27T12:07:32;8.60;99.90
23100;DHT22;53791;50.696;4.396;2022-11-27T12:18:24;8.60;99.90
23100;DHT22;53791;50.696;4.396;2022-11-27T12:21:14;8.60;99.90
23100;DHT22;53791;50.696;4.396;2022-11-27T12:23:50;8.60;99.90
23100;DHT22;53791;50.696;4.396;2022-11-27T12:32:20;8.80;99.90
23100;DHT22;53791;50.696;4.396;2022-11-27T12:38:40;8.70;99.90
23100;DHT22;53791;50.696;4.396;2022-11-27T12:43:52;8.60;99.90
23100;DHT22;53791;50.696;4.396;2022-11-27T12:46:48;8.70;99.90
23100;DHT22;53791;50.696;4.396;2022-11-27T12:49:36;8.70;99.90
23100;DHT22;53791;50.696;4.396;2022-11-27T12:52:11;8.70;99.90
23100;DHT22;53791;50.696;4.396;2022-11-27T12:57:17;8.70;99.90
23100;DHT22;53791;50.696;4.396;2022-11-27T12:59:51;8.80;99.90
23100;DHT22;53791;50.696;4.396;2022-11-27T13:05:03;8.90;99.90
23100;DHT22;53791;50.696;4.396;2022-11-27T13:10:24;8.90;99.90
23100;DHT22;53791;50.696;4.396;2022-11-27T13:13:01;8.80;99.90
23100;DHT22;53791;50.696;4.396;2022-11-27T13:15:41;8.70;99.90
23100;DHT22;53791;50.696;4.396;2022-11-27T13:18:08;8.70;99.90
23100;DHT22;53791;50.696;4.396;2022-11-27T13:20:35;8.70;99.90
23100;DHT22;53791;50.696;4.396;2022-11-27T13:23:03;8.70;99.90
23100;DHT22;53791;50.696;4.396;2022-11-27T13:25:32;8.70;99.90
23100;DHT22;53791;50.696;4.396;2022-11-27T13:28:02;8.90;99.90
23100;DHT22;53791;50.696;4.396;2022-11-27T13:30:33;8.90;99.90
23100;DHT22;53791;50.696;4.396;2022-11-27T13:33:02;8.90;99.90
23100;DHT22;53791;50.696;4.396;2022-11-27T13:35:42;8.90;99.90
23100;DHT22;53791;50.696;4.396;2022-11-27T13:38:19;8.90;99.90
23100;DHT22;53791;50.696;4.396;2022-11-27T13:40:45;8.90;99.90
23100;DHT22;53791;50.696;4.396;2022-11-27T13:43:40;9.00;99.90
23100;DHT22;53791;50.696;4.396;2022-11-27T13:46:19;9.00;99.90
23100;DHT22;53791;50.696;4.396;2022-11-27T13:49:03;9.00;99.90
23100;DHT22;53791;50.696;4.396;2022-11-27T13:51:34;9.20;99.90
23100;DHT22;53791;50.696;4.396;2022-11-27T13:54:11;9.20;99.90
23100;DHT22;53791;50.696;4.396;2022-11-27T13:56:40;9.20;99.90
23100;DHT22;53791;50.696;4.396;2022-11-27T13:59:23;9.20;99.90
23100;DHT22;53791;50.696;4.396;2022-11-27T14:02:02;9.20;99.90
23100;DHT22;53791;50.696;4.396;2022-11-27T14:04:31;9.10;99.90
23100;DHT22;53791;50.696;4.396;2022-11-27T14:07:04;9.00;99.90
23100;DHT22;53791;50.696;4.396;2022-11-27T14:12:29;9.00;99.90
23100;DHT22;53791;50.696;4.396;2022-11-27T14:15:08;9.10;99.90
23100;DHT22;53791;50.696;4.396;2022-11-27T14:17:41;9.00;99.90
23100;DHT22;53791;50.696;4.396;2022-11-27T14:22:57;9.00;99.90
23100;DHT22;53791;50.696;4.396;2022-11-27T14:25:32;9.10;99.90
23100;DHT22;53791;50.696;4.396;2022-11-27T14:28:13;9.10;99.90
23100;DHT22;53791;50.696;4.396;2022-11-27T14:30:47;9.20;99.90
23100;DHT22;53791;50.696;4.396;2022-11-27T14:33:22;9.10;99.90
23100;DHT22;53791;50.696;4.396;2022-11-27T14:35:52;9.10;99.90
23100;DHT22;53791;50.696;4.396;2022-11-27T14:38:21;9.10;99.90
23100;DHT22;53791;50.696;4.396;2022-11-27T14:40:50;9.10;99.90
23100;DHT22;53791;50.696;4.396;2022-11-27T14:43:21;9.10;99.90
23100;DHT22;53791;50.696;4.396;2022-11-27T14:45:58;9.10;99.90
23100;DHT22;53791;50.696;4.396;2022-11-27T14:48:43;9.00;99.90
23100;DHT22;53791;50.696;4.396;2022-11-27T14:51:11;9.10;99.90
23100;DHT22;53791;50.696;4.396;2022-11-27T14:53:37;9.00;99.90
23100;DHT22;53791;50.696;4.396;2022-11-27T14:56:05;9.10;99.90
23100;DHT22;53791;50.696;4.396;2022-11-27T14:58:33;9.10;99.90
23100;DHT22;53791;50.696;4.396;2022-11-27T15:01:06;9.00;99.90
23100;DHT22;53791;50.696;4.396;2022-11-27T15:03:33;9.00;99.90
23100;DHT22;53791;50.696;4.396;2022-11-27T15:06:04;9.10;99.90
23100;DHT22;53791;50.696;4.396;2022-11-27T15:08:34;9.10;99.90
23100;DHT22;53791;50.696;4.396;2022-11-27T15:11:04;9.10;99.90
23100;DHT22;53791;50.696;4.396;2022-11-27T15:13:33;9.10;99.90
23100;DHT22;53791;50.696;4.396;2022-11-27T15:16:06;9.10;99.90
23100;DHT22;53791;50.696;4.396;2022-11-27T15:18:35;9.10;99.90
23100;DHT22;53791;50.696;4.396;2022-11-27T15:21:08;9.10;99.90
23100;DHT22;53791;50.696;4.396;2022-11-27T15:23:37;9.10;99.90
23100;DHT22;53791;50.696;4.396;2022-11-27T15:26:08;9.00;99.90
23100;DHT22;53791;50.696;4.396;2022-11-27T15:28:53;9.00;99.90
23100;DHT22;53791;50.696;4.396;2022-11-27T15:31:27;9.10;99.90
23100;DHT22;53791;50.696;4.396;2022-11-27T15:33:56;9.00;99.90
23100;DHT22;53791;50.696;4.396;2022-11-27T15:36:24;8.90;99.90
23100;DHT22;53791;50.696;4.396;2022-11-27T15:39:02;8.90;99.90
23100;DHT22;53791;50.696;4.396;2022-11-27T15:41:23;8.80;99.90
23100;DHT22;53791;50.696;4.396;2022-11-27T15:43:52;8.90;99.90
23100;DHT22;53791;50.696;4.396;2022-11-27T15:46:27;8.90;99.90
23100;DHT22;53791;50.696;4.396;2022-11-27T15:48:50;8.90;99.90
23100;DHT22;53791;50.696;4.396;2022-11-27T15:51:21;8.90;99.90
23100;DHT22;53791;50.696;4.396;2022-11-27T15:53:48;8.90;99.90
23100;DHT22;53791;50.696;4.396;2022-11-27T15:56:17;9.00;99.90
23100;DHT22;53791;50.696;4.396;2022-11-27T15:58:45;9.00;99.90
23100;DHT22;53791;50.696;4.396;2022-11-27T16:01:12;9.00;99.90
23100;DHT22;53791;50.696;4.396;2022-11-27T16:03:40;9.10;99.90
23100;DHT22;53791;50.696;4.396;2022-11-27T16:06:08;9.10;99.90
23100;DHT22;53791;50.696;4.396;2022-11-27T16:08:35;9.10;99.90
23100;DHT22;53791;50.696;4.396;2022-11-27T16:11:05;9.10;99.90
23100;DHT22;53791;50.696;4.396;2022-11-27T16:13:33;9.00;99.90
23100;DHT22;53791;50.696;4.396;2022-11-27T16:16:05;8.90;99.90
23100;DHT22;53791;50.696;4.396;2022-11-27T16:18:33;9.00;99.90
23100;DHT22;53791;50.696;4.396;2022-11-27T16:21:09;8.90;99.90
23100;DHT22;53791;50.696;4.396;2022-11-27T16:23:37;8.90;99.90
23100;DHT22;53791;50.696;4.396;2022-11-27T16:29:28;8.80;99.90
23100;DHT22;53791;50.696;4.396;2022-11-27T16:31:56;8.80;99.90
23100;DHT22;53791;50.696;4.396;2022-11-27T16:34:23;8.70;99.90
23100;DHT22;53791;50.696;4.396;2022-11-27T16:39:59;8.70;99.90
23100;DHT22;53791;50.696;4.396;2022-11-27T16:42:27;8.70;99.90
23100;DHT22;53791;50.696;4.396;2022-11-27T16:44:55;8.80;99.90
23100;DHT22;53791;50.696;4.396;2022-11-27T16:47:22;8.70;99.90
23100;DHT22;53791;50.696;4.396;2022-11-27T16:49:51;8.80;99.90
23100;DHT22;53791;50.696;4.396;2022-11-27T16:52:18;8.80;99.90
23100;DHT22;53791;50.696;4.396;2022-11-27T16:54:46;8.70;99.90
23100;DHT22;53791;50.696;4.396;2022-11-27T16:57:13;8.80;99.90
23100;DHT22;53791;50.696;4.396;2022-11-27T16:59:41;8.70;99.90
23100;DHT22;53791;50.696;4.396;2022-11-27T17:02:09;8.70;99.90
23100;DHT22;53791;50.696;4.396;2022-11-27T17:04:37;8.70;99.90
23100;DHT22;53791;50.696;4.396;2022-11-27T17:07:05;8.60;99.90
23100;DHT22;53791;50.696;4.396;2022-11-27T17:09:32;8.60;99.90
23100;DHT22;53791;50.696;4.396;2022-11-27T17:12:01;8.60;99.90
23100;DHT22;53791;50.696;4.396;2022-11-27T17:14:28;8.60;99.90
23100;DHT22;53791;50.696;4.396;2022-11-27T17:16:56;8.60;99.90
23100;DHT22;53791;50.696;4.396;2022-11-27T17:19:24;8.70;99.90
23100;DHT22;53791;50.696;4.396;2022-11-27T17:22:12;8.70;99.90
23100;DHT22;53791;50.696;4.396;2022-11-27T17:24:57;8.70;99.90
23100;DHT22;53791;50.696;4.396;2022-11-27T17:27:25;8.70;99.90
23100;DHT22;53791;50.696;4.396;2022-11-27T17:29:53;8.60;99.90
23100;DHT22;53791;50.696;4.396;2022-11-27T17:32:20;8.60;99.90
23100;DHT22;53791;50.696;4.396;2022-11-27T17:34:52;8.70;99.90
23100;DHT22;53791;50.696;4.396;2022-11-27T17:37:26;8.60;99.90
23100;DHT22;53791;50.696;4.396;2022-11-27T17:39:53;8.60;99.90
23100;DHT22;53791;50.696;4.396;2022-11-27T17:42:21;8.60;99.90
23100;DHT22;53791;50.696;4.396;2022-11-27T17:44:48;8.60;99.90
23100;DHT22;53791;50.696;4.396;2022-11-27T17:47:16;8.60;99.90
23100;DHT22;53791;50.696;4.396;2022-11-27T17:49:44;8.60;99.90
23100;DHT22;53791;50.696;4.396;2022-11-27T17:52:12;8.60;99.90
23100;DHT22;53791;50.696;4.396;2022-11-27T17:55:07;8.60;99.90
23100;DHT22;53791;50.696;4.396;2022-11-27T17:57:34;8.60;99.90
23100;DHT22;53791;50.696;4.396;2022-11-27T18:00:02;8.50;99.90
23100;DHT22;53791;50.696;4.396;2022-11-27T18:02:30;8.50;99.90
23100;DHT22;53791;50.696;4.396;2022-11-27T18:04:59;8.50;99.90
23100;DHT22;53791;50.696;4.396;2022-11-27T18:07:27;8.50;99.90
23100;DHT22;53791;50.696;4.396;2022-11-27T18:10:20;8.60;99.90
23100;DHT22;53791;50.696;4.396;2022-11-27T18:13:01;8.60;99.90
23100;DHT22;53791;50.696;4.396;2022-11-27T18:15:29;8.80;99.90
23100;DHT22;53791;50.696;4.396;2022-11-27T18:17:57;8.80;99.90